createdAt,value
2022-08-10T00:01:51.774Z,21.09
2022-08-10T00:04:24.200Z,21.16
2022-08-10T00:06:55.489Z,21.09
2022-08-10T00:09:23.373Z,21.00
2022-08-10T00:11:50.940Z,21.01
2022-08-10T00:14:18.427Z,21.09
2022-08-10T00:16:45.566Z,20.99
2022-08-10T00:19:13.040Z,20.79
2022-08-10T00:21:44.254Z,20.84
2022-08-10T00:24:11.356Z,20.87
2022-08-10T00:28:00.696Z,20.80
2022-08-10T00:29:25.687Z,20.86
2022-08-10T00:31:55.874Z,20.83
2022-08-10T00:34:30.861Z,20.72
2022-08-10T00:36:58.454Z,20.67
2022-08-10T00:39:26.790Z,20.57
2022-08-10T00:42:06.627Z,20.60
2022-08-10T00:44:37.427Z,20.58
2022-08-10T00:47:05.584Z,20.61
2022-08-10T00:49:33.105Z,20.55
2022-08-10T00:52:00.404Z,20.60
2022-08-10T00:54:28.396Z,20.57
2022-08-10T00:57:17.670Z,20.54
2022-08-10T00:59:57.793Z,20.45
2022-08-10T01:02:29.797Z,20.49
2022-08-10T01:05:02.149Z,20.08
2022-08-10T01:08:01.935Z,20.31
2022-08-10T01:10:40.641Z,20.07
2022-08-10T01:13:10.457Z,19.92
2022-08-10T01:16:06.849Z,20.03
2022-08-10T01:18:43.518Z,20.10
2022-08-10T01:21:48.033Z,19.83
2022-08-10T01:24:58.975Z,19.83
2022-08-10T01:28:01.325Z,19.88
2022-08-10T01:30:30.515Z,19.95
2022-08-10T01:33:07.948Z,19.87
2022-08-10T01:35:40.751Z,19.71
2022-08-10T01:38:19.221Z,19.55
2022-08-10T01:40:53.651Z,19.75
2022-08-10T01:43:21.263Z,19.69
2022-08-10T01:45:52.561Z,19.77
2022-08-10T01:48:28.335Z,19.86
2022-08-10T01:51:04.716Z,19.42
2022-08-10T01:53:42.976Z,19.67
2022-08-10T01:56:13.901Z,19.45
2022-08-10T01:58:43.619Z,19.51
2022-08-10T02:01:16.969Z,19.34
2022-08-10T02:04:05.302Z,19.50
2022-08-10T02:06:45.950Z,19.35
2022-08-10T02:09:18.375Z,19.30
2022-08-10T02:12:05.250Z,19.50
2022-08-10T02:14:44.897Z,19.46
2022-08-10T02:17:57.442Z,19.53
2022-08-10T02:20:15.449Z,19.39
2022-08-10T02:22:44.836Z,19.61
2022-08-10T02:25:41.066Z,19.63
2022-08-10T02:28:03.185Z,19.60
2022-08-10T02:30:30.927Z,19.38
2022-08-10T02:33:00.395Z,19.42
2022-08-10T02:35:33.478Z,19.41
2022-08-10T02:38:19.864Z,19.33
2022-08-10T02:45:03.200Z,19.36
2022-08-10T02:45:27.274Z,19.06
2022-08-10T02:46:41.699Z,19.23
2022-08-10T02:49:17.999Z,19.20
2022-08-10T02:52:06.206Z,19.27
2022-08-10T02:54:43.097Z,19.18
2022-08-10T02:57:16.408Z,19.32
2022-08-10T02:59:48.355Z,19.27
2022-08-10T03:02:35.195Z,19.28
2022-08-10T03:05:11.852Z,19.23
2022-08-10T03:07:48.364Z,19.21
2022-08-10T03:10:30.643Z,19.20
2022-08-10T03:13:00.737Z,19.13
2022-08-10T03:15:31.098Z,19.04
2022-08-10T03:17:58.989Z,18.92
2022-08-10T03:20:39.535Z,19.03
2022-08-10T03:23:16.437Z,18.99
2022-08-10T03:25:53.647Z,18.93
2022-08-10T03:28:31.660Z,18.87
2022-08-10T03:31:00.494Z,18.71
2022-08-10T03:33:32.116Z,18.69
2022-08-10T03:36:42.829Z,18.78
2022-08-10T03:38:51.457Z,18.78
2022-08-10T03:41:35.661Z,18.77
2022-08-10T03:44:04.982Z,18.83
2022-08-10T03:46:35.562Z,18.70
2022-08-10T03:49:04.658Z,18.64
2022-08-10T03:51:33.433Z,18.69
2022-08-10T03:54:04.839Z,18.59
2022-08-10T03:56:36.432Z,18.44
2022-08-10T03:59:05.353Z,18.59
2022-08-10T04:02:44.420Z,18.74
2022-08-10T04:04:24.584Z,18.68
2022-08-10T04:06:55.416Z,18.61
2022-08-10T04:09:43.156Z,18.69
2022-08-10T04:12:15.420Z,18.59
2022-08-10T04:14:50.623Z,18.71
2022-08-10T04:18:03.409Z,18.69
2022-08-10T04:20:13.579Z,18.56
2022-08-10T04:22:43.265Z,18.53
2022-08-10T04:25:12.290Z,18.50
2022-08-10T04:27:39.794Z,18.36
2022-08-10T04:30:07.607Z,18.43
2022-08-10T04:32:36.586Z,18.40
2022-08-10T04:35:05.011Z,18.51
2022-08-10T04:37:34.675Z,18.56
2022-08-10T04:40:02.217Z,18.69
2022-08-10T04:42:30.393Z,18.74
2022-08-10T04:44:57.494Z,18.77
2022-08-10T04:47:57.479Z,18.84
2022-08-10T04:50:11.975Z,18.83
2022-08-10T04:52:39.597Z,18.92
2022-08-10T04:55:07.435Z,18.97
2022-08-10T04:57:34.561Z,18.85
2022-08-10T05:00:02.152Z,18.84
2022-08-10T05:02:36.000Z,18.94
2022-08-10T05:05:03.392Z,19.01
2022-08-10T05:07:30.494Z,19.05
2022-08-10T05:10:02.741Z,18.79
2022-08-10T05:12:35.776Z,18.95
2022-08-10T05:15:06.551Z,19.08
2022-08-10T05:17:35.629Z,19.14
2022-08-10T05:20:08.189Z,19.16
2022-08-10T05:22:38.318Z,19.14
2022-08-10T05:25:08.358Z,19.30
2022-08-10T05:27:35.497Z,19.30
2022-08-10T05:30:04.087Z,19.31
2022-08-10T05:32:32.581Z,19.42
2022-08-10T05:35:20.640Z,19.53
2022-08-10T05:38:12.225Z,19.61
2022-08-10T05:40:37.593Z,19.59
2022-08-10T05:43:05.537Z,19.64
2022-08-10T05:45:32.676Z,19.86
2022-08-10T05:48:56.966Z,19.87
2022-08-10T05:50:47.141Z,19.52
2022-08-10T05:53:39.114Z,19.86
2022-08-10T05:56:03.194Z,19.92
2022-08-10T05:58:30.293Z,19.97
2022-08-10T06:01:00.146Z,20.01
2022-08-10T06:03:34.141Z,20.05
2022-08-10T06:06:04.135Z,20.16
2022-08-10T06:08:33.614Z,20.25
2022-08-10T06:12:21.726Z,20.28
2022-08-10T06:14:16.224Z,20.34
2022-08-10T06:16:45.911Z,20.35
2022-08-10T06:19:14.872Z,20.31
2022-08-10T06:22:00.375Z,20.49
2022-08-10T06:24:50.971Z,20.53
2022-08-10T06:27:34.433Z,20.58
2022-08-10T06:30:02.438Z,20.69
2022-08-10T06:32:30.783Z,20.75
2022-08-10T06:35:00.389Z,20.75
2022-08-10T06:37:29.183Z,20.85
2022-08-10T06:39:56.503Z,20.87
2022-08-10T06:42:34.204Z,20.96
2022-08-10T06:45:13.552Z,20.92
2022-08-10T06:47:46.584Z,20.97
2022-08-10T06:50:35.044Z,20.96
2022-08-10T06:53:15.833Z,21.03
2022-08-10T06:55:56.211Z,21.10
2022-08-10T06:58:34.193Z,21.15
2022-08-10T07:01:05.352Z,21.24
2022-08-10T07:03:38.547Z,21.31
2022-08-10T07:06:08.030Z,21.41
2022-08-10T07:08:37.226Z,21.43
2022-08-10T07:11:07.699Z,21.54
2022-08-10T07:14:14.452Z,21.60
2022-08-10T07:16:28.503Z,21.63
2022-08-10T07:18:58.496Z,21.71
2022-08-10T07:21:27.087Z,21.71
2022-08-10T07:24:00.227Z,21.78
2022-08-10T07:26:30.479Z,21.81
2022-08-10T07:28:59.338Z,21.91
2022-08-10T07:31:32.983Z,21.95
2022-08-10T07:34:21.652Z,22.12
2022-08-10T07:37:01.742Z,22.12
2022-08-10T07:39:57.921Z,22.18
2022-08-10T07:42:19.980Z,22.20
2022-08-10T07:44:48.525Z,22.23
2022-08-10T07:47:19.821Z,22.40
2022-08-10T07:50:10.767Z,22.40
2022-08-10T07:52:39.930Z,22.51
2022-08-10T07:55:07.909Z,22.47
2022-08-10T07:57:40.310Z,22.60
2022-08-10T08:00:12.325Z,22.71
2022-08-10T08:02:51.286Z,22.68
2022-08-10T08:05:55.113Z,22.76
2022-08-10T08:08:09.905Z,22.90
2022-08-10T08:10:38.127Z,22.85
2022-08-10T08:13:05.750Z,22.96
2022-08-10T08:16:19.149Z,23.04
2022-08-10T08:18:26.211Z,23.05
2022-08-10T08:20:54.541Z,23.16
2022-08-10T08:24:09.126Z,23.20
2022-08-10T08:26:11.891Z,23.26
2022-08-10T08:28:45.558Z,23.37
2022-08-10T08:31:15.976Z,23.26
2022-08-10T08:33:45.405Z,23.33
2022-08-10T08:36:15.879Z,23.59
2022-08-10T08:38:43.750Z,23.65
2022-08-10T08:41:22.708Z,23.61
2022-08-10T08:43:52.467Z,23.67
2022-08-10T08:46:52.730Z,23.78
2022-08-10T08:50:07.957Z,23.71
2022-08-10T08:52:51.459Z,23.75
2022-08-10T08:56:04.419Z,23.79
2022-08-10T08:58:49.341Z,23.70
2022-08-10T09:01:51.295Z,23.99
2022-08-10T09:04:27.748Z,23.88
2022-08-10T09:08:01.188Z,24.11
2022-08-10T09:10:26.668Z,24.19
2022-08-10T09:13:26.738Z,24.29
2022-08-10T09:16:25.303Z,24.32
2022-08-10T09:19:35.653Z,24.29
2022-08-10T09:22:51.897Z,24.18
2022-08-10T09:25:25.698Z,24.40
2022-08-10T09:28:03.285Z,24.48
2022-08-10T09:30:38.469Z,24.43
2022-08-10T09:36:19.319Z,24.52
2022-08-10T09:36:31.935Z,24.54
2022-08-10T09:40:56.203Z,24.57
2022-08-10T09:42:34.614Z,24.56
2022-08-10T09:45:30.274Z,24.55
2022-08-10T09:48:27.804Z,24.71
2022-08-10T09:51:43.659Z,24.86
2022-08-10T09:54:04.790Z,24.99
2022-08-10T09:56:45.310Z,24.85
2022-08-10T10:00:00.203Z,25.08
2022-08-10T10:02:41.654Z,25.22
2022-08-10T10:05:18.040Z,25.24
2022-08-10T10:08:07.580Z,25.19
2022-08-10T10:11:21.348Z,25.16
2022-08-10T10:14:26.232Z,25.36
2022-08-10T10:17:20.998Z,25.76
2022-08-10T10:20:04.413Z,25.40
2022-08-10T10:23:01.849Z,25.50
2022-08-10T10:26:10.575Z,25.48
2022-08-10T10:29:20.058Z,25.56
2022-08-10T10:31:58.480Z,25.59
2022-08-10T10:34:47.916Z,25.61
2022-08-10T10:37:17.815Z,25.57
2022-08-10T10:39:51.837Z,25.72
2022-08-10T10:42:49.471Z,25.54
2022-08-10T10:45:20.909Z,25.73
2022-08-10T10:48:29.113Z,25.59
2022-08-10T10:51:10.684Z,25.75
2022-08-10T10:54:15.625Z,25.96
2022-08-10T10:56:56.908Z,26.09
2022-08-10T10:59:55.694Z,26.31
2022-08-10T11:02:49.388Z,26.07
2022-08-10T11:05:40.537Z,25.90
2022-08-10T11:08:29.012Z,26.31
2022-08-10T11:11:06.672Z,26.24
2022-08-10T11:14:23.586Z,26.73
2022-08-10T11:17:38.167Z,26.84
2022-08-10T11:20:14.685Z,26.53
2022-08-10T11:23:03.939Z,26.89
2022-08-10T11:25:36.282Z,26.65
2022-08-10T11:28:12.759Z,26.74
2022-08-10T11:30:54.916Z,26.25
2022-08-10T11:37:09.087Z,26.94
2022-08-10T11:39:49.603Z,27.00
2022-08-10T11:42:35.890Z,27.02
2022-08-10T11:45:17.694Z,26.97
2022-08-10T11:47:53.556Z,26.81
2022-08-10T11:50:26.480Z,26.84
2022-08-10T11:53:13.762Z,27.30
2022-08-10T11:55:49.197Z,27.56
2022-08-10T11:58:39.549Z,27.57
2022-08-10T12:01:09.778Z,27.46
2022-08-10T12:03:39.991Z,27.74
2022-08-10T12:06:13.331Z,27.66
2022-08-10T12:10:05.134Z,27.68
2022-08-10T12:11:34.376Z,27.46
2022-08-10T12:14:23.465Z,27.64
2022-08-10T12:16:59.772Z,26.89
2022-08-10T12:19:59.533Z,27.34
2022-08-10T12:22:36.477Z,27.37
2022-08-10T12:25:11.304Z,27.16
2022-08-10T12:27:50.593Z,27.47
2022-08-10T12:30:22.826Z,27.61
2022-08-10T12:33:14.082Z,27.39
2022-08-10T12:36:08.256Z,27.31
2022-08-10T12:38:51.827Z,27.56
2022-08-10T12:41:44.397Z,27.96
2022-08-10T12:44:41.576Z,28.07
2022-08-10T12:47:37.029Z,27.93
2022-08-10T12:50:33.995Z,27.83
2022-08-10T12:53:15.435Z,28.10
2022-08-10T12:55:44.132Z,28.23
2022-08-10T12:58:59.720Z,28.32
2022-08-10T13:01:16.067Z,28.36
2022-08-10T13:04:23.595Z,28.28
2022-08-10T13:06:41.640Z,28.22
2022-08-10T13:09:09.217Z,28.74
2022-08-10T13:12:36.917Z,28.61
2022-08-10T13:14:42.816Z,28.28
2022-08-10T13:17:11.755Z,28.52
2022-08-10T13:19:55.468Z,28.71
2022-08-10T13:22:34.350Z,28.76
2022-08-10T13:25:03.844Z,28.60
2022-08-10T13:28:01.309Z,28.89
2022-08-10T13:30:38.032Z,28.72
2022-08-10T13:33:10.926Z,28.75
2022-08-10T13:35:39.035Z,28.57
2022-08-10T13:38:08.882Z,28.90
2022-08-10T13:40:38.285Z,29.00
2022-08-10T13:43:08.256Z,29.08
2022-08-10T13:45:45.165Z,29.02
2022-08-10T13:48:24.979Z,29.10
2022-08-10T13:50:57.903Z,28.98
2022-08-10T13:53:33.215Z,28.75
2022-08-10T13:56:01.964Z,28.94
2022-08-10T13:58:35.945Z,29.11
2022-08-10T14:01:11.063Z,29.18
2022-08-10T14:03:41.368Z,29.22
2022-08-10T14:06:14.093Z,29.25
2022-08-10T14:08:48.502Z,28.53
2022-08-10T14:11:19.079Z,28.81
2022-08-10T14:13:53.426Z,29.36
2022-08-10T14:16:22.299Z,29.36
2022-08-10T14:18:51.182Z,29.50
2022-08-10T14:21:18.678Z,29.73
2022-08-10T14:23:52.289Z,29.47
2022-08-10T14:26:24.610Z,29.22
2022-08-10T14:28:58.518Z,29.40
2022-08-10T14:31:34.729Z,29.51
2022-08-10T14:34:05.473Z,29.65
2022-08-10T14:36:42.278Z,29.63
2022-08-10T14:39:19.538Z,29.76
2022-08-10T14:42:04.168Z,29.78
2022-08-10T14:44:45.138Z,29.39
2022-08-10T14:47:52.720Z,29.75
2022-08-10T14:50:03.761Z,29.91
2022-08-10T14:52:39.580Z,33.70
2022-08-10T14:55:19.087Z,39.50
2022-08-10T14:58:20.176Z,42.02
2022-08-10T15:00:42.710Z,44.57
2022-08-10T15:03:58.537Z,44.54
2022-08-10T15:06:17.115Z,46.08
2022-08-10T15:08:47.361Z,45.51
2022-08-10T15:12:13.991Z,47.76
2022-08-10T15:14:41.553Z,47.29
2022-08-10T15:16:56.303Z,41.83
2022-08-10T15:20:01.741Z,45.68
2022-08-10T15:22:36.509Z,46.30
2022-08-10T15:25:18.829Z,48.56
2022-08-10T15:27:56.135Z,48.21
2022-08-10T15:30:30.468Z,48.93
2022-08-10T15:33:21.295Z,47.23
2022-08-10T15:36:29.821Z,48.43
2022-08-10T15:39:02.671Z,48.03
2022-08-10T15:41:58.661Z,49.11
2022-08-10T15:44:49.802Z,48.34
2022-08-10T15:47:26.717Z,48.77
2022-08-10T15:50:15.126Z,48.18
2022-08-10T15:53:00.422Z,47.52
2022-08-10T15:55:43.452Z,46.70
2022-08-10T15:58:39.848Z,48.46
2022-08-10T16:02:12.488Z,47.85
2022-08-10T16:04:08.622Z,48.31
2022-08-10T16:06:43.765Z,48.70
2022-08-10T16:10:24.453Z,47.23
2022-08-10T16:12:29.151Z,50.31
2022-08-10T16:15:03.256Z,46.83
2022-08-10T16:17:54.278Z,44.97
2022-08-10T16:20:31.320Z,45.89
2022-08-10T16:23:02.339Z,47.12
2022-08-10T16:25:48.436Z,47.69
2022-08-10T16:28:23.240Z,48.53
2022-08-10T16:30:53.948Z,48.21
2022-08-10T16:33:54.148Z,48.02
2022-08-10T16:36:17.548Z,46.54
2022-08-10T16:38:49.232Z,44.32
2022-08-10T16:42:00.346Z,46.94
2022-08-10T16:44:10.143Z,46.26
2022-08-10T16:46:43.886Z,41.84
2022-08-10T16:49:16.458Z,45.29
2022-08-10T16:51:50.816Z,47.00
2022-08-10T16:54:26.861Z,47.33
2022-08-10T16:57:01.295Z,47.31
2022-08-10T16:59:35.281Z,46.61
2022-08-10T17:02:03.806Z,44.66
2022-08-10T17:04:33.782Z,44.27
2022-08-10T17:07:07.301Z,44.43
2022-08-10T17:09:37.727Z,44.31
2022-08-10T17:12:11.775Z,43.82
2022-08-10T17:14:42.136Z,44.56
2022-08-10T17:17:17.641Z,45.10
2022-08-10T17:19:45.577Z,43.27
2022-08-10T17:22:23.155Z,41.71
2022-08-10T17:24:52.723Z,40.08
2022-08-10T17:28:05.075Z,40.24
2022-08-10T17:30:16.156Z,39.06
2022-08-10T17:33:10.245Z,38.53
2022-08-10T17:35:39.067Z,37.72
2022-08-10T17:38:22.706Z,36.88
2022-08-10T17:40:56.361Z,35.16
2022-08-10T17:43:46.501Z,35.02
2022-08-10T17:46:13.919Z,34.03
2022-08-10T17:48:41.750Z,33.43
2022-08-10T17:51:13.787Z,33.49
2022-08-10T17:53:44.564Z,33.32
2022-08-10T17:56:12.599Z,32.76
2022-08-10T17:58:46.090Z,32.54
2022-08-10T18:01:40.243Z,31.82
2022-08-10T18:04:14.432Z,31.96
2022-08-10T18:06:43.756Z,31.50
2022-08-10T18:09:24.101Z,31.45
2022-08-10T18:11:58.705Z,31.33
2022-08-10T18:14:30.109Z,31.39
2022-08-10T18:16:58.803Z,30.81
2022-08-10T18:19:29.859Z,30.68
2022-08-10T18:21:58.400Z,30.95
2022-08-10T18:24:28.608Z,30.79
2022-08-10T18:27:01.149Z,29.94
2022-08-10T18:29:28.954Z,29.72
2022-08-10T18:32:01.004Z,29.97
2022-08-10T18:34:30.261Z,30.36
2022-08-10T18:36:57.756Z,30.17
2022-08-10T18:39:28.713Z,29.43
2022-08-10T18:42:05.767Z,29.92
2022-08-10T18:44:42.239Z,30.17
2022-08-10T18:47:15.999Z,29.84
2022-08-10T18:49:55.183Z,29.28
2022-08-10T18:52:26.052Z,29.39
2022-08-10T18:54:59.195Z,29.39
2022-08-10T18:57:54.702Z,28.68
2022-08-10T19:00:25.398Z,28.59
2022-08-10T19:03:31.755Z,28.45
2022-08-10T19:06:23.962Z,28.56
2022-08-10T19:09:46.799Z,27.94
2022-08-10T19:12:34.414Z,27.81
2022-08-10T19:15:29.766Z,27.92
2022-08-10T19:18:32.292Z,27.38
2022-08-10T19:21:39.843Z,27.55
2022-08-10T19:24:19.562Z,27.45
2022-08-10T19:26:59.221Z,27.50
2022-08-10T19:30:12.329Z,27.42
2022-08-10T19:32:54.580Z,27.16
2022-08-10T19:36:04.048Z,26.64
2022-08-10T19:38:50.247Z,26.54
2022-08-10T19:41:32.043Z,26.69
2022-08-10T19:44:26.155Z,26.67
2022-08-10T19:47:24.176Z,26.52
2022-08-10T19:50:03.539Z,26.35
2022-08-10T19:52:36.823Z,26.24
2022-08-10T19:55:22.045Z,26.25
2022-08-10T19:58:01.021Z,26.35
2022-08-10T20:00:38.551Z,26.19
2022-08-10T20:03:22.899Z,26.36
2022-08-10T20:06:23.655Z,26.43
2022-08-10T20:08:58.685Z,26.12
2022-08-10T20:11:49.439Z,25.95
2022-08-10T20:14:31.241Z,25.91
2022-08-10T20:17:09.526Z,25.53
2022-08-10T20:19:53.029Z,25.38
2022-08-10T20:22:29.131Z,25.56
2022-08-10T20:25:03.071Z,25.89
2022-08-10T20:27:59.960Z,25.67
2022-08-10T20:30:20.346Z,25.54
2022-08-10T20:32:57.715Z,25.24
2022-08-10T20:35:31.195Z,25.15
2022-08-10T20:38:19.541Z,25.14
2022-08-10T20:41:26.527Z,25.20
2022-08-10T20:44:01.887Z,25.10
2022-08-10T20:46:56.429Z,25.39
2022-08-10T20:50:00.576Z,25.01
2022-08-10T20:52:30.203Z,25.20
2022-08-10T20:55:07.371Z,25.19
2022-08-10T20:57:55.523Z,25.35
2022-08-10T21:00:40.952Z,25.14
2022-08-10T21:03:21.160Z,24.99
2022-08-10T21:05:58.075Z,24.89
2022-08-10T21:08:41.261Z,24.96
2022-08-10T21:11:17.489Z,25.03
2022-08-10T21:14:01.613Z,25.00
2022-08-10T21:17:08.748Z,25.08
2022-08-10T21:20:00.377Z,25.10
2022-08-10T21:22:33.260Z,25.23
2022-08-10T21:25:03.589Z,25.18
2022-08-10T21:28:00.866Z,25.05
2022-08-10T21:30:42.495Z,24.85
2022-08-10T21:33:14.797Z,24.46
2022-08-10T21:35:48.969Z,22.38
2022-08-10T21:38:41.544Z,22.93
2022-08-10T21:41:57.611Z,22.92
2022-08-10T21:44:56.716Z,22.77
2022-08-10T21:48:31.562Z,22.81
2022-08-10T21:52:01.612Z,22.84
2022-08-10T21:54:42.531Z,22.33
2022-08-10T21:57:57.299Z,22.50
2022-08-10T22:00:43.550Z,22.67
2022-08-10T22:03:39.824Z,22.77
2022-08-10T22:06:27.831Z,22.72
2022-08-10T22:09:26.627Z,22.67
2022-08-10T22:12:30.916Z,22.58
2022-08-10T22:16:03.226Z,22.17
2022-08-10T22:18:53.796Z,22.32
2022-08-10T22:22:19.823Z,22.53
2022-08-10T22:25:38.104Z,22.62
2022-08-10T22:28:24.149Z,22.34
2022-08-10T22:34:56.491Z,22.45
2022-08-10T22:38:16.338Z,22.19
2022-08-10T22:41:06.113Z,22.31
2022-08-10T22:43:55.120Z,22.03
2022-08-10T22:46:43.660Z,21.85
2022-08-10T22:49:10.936Z,21.78
2022-08-10T22:51:57.896Z,22.01
2022-08-10T22:54:59.888Z,21.96
2022-08-10T22:57:45.806Z,21.88
2022-08-10T23:00:15.122Z,21.81
2022-08-10T23:02:50.751Z,21.84
2022-08-10T23:05:26.615Z,21.82
2022-08-10T23:07:59.701Z,21.70
2022-08-10T23:10:33.612Z,21.68
2022-08-10T23:13:35.607Z,21.65
2022-08-10T23:16:24.318Z,21.63
2022-08-10T23:19:09.753Z,21.75
2022-08-10T23:22:03.863Z,21.58
2022-08-10T23:24:38.671Z,21.44
2022-08-10T23:27:12.256Z,21.67
2022-08-10T23:30:09.523Z,21.48
2022-08-10T23:32:40.854Z,21.43
2022-08-10T23:36:30.747Z,21.43
2022-08-10T23:38:01.719Z,21.48
2022-08-10T23:40:29.152Z,21.42
2022-08-10T23:42:58.419Z,21.46
2022-08-10T23:45:28.848Z,21.42
2022-08-10T23:48:19.765Z,21.53
2022-08-10T23:50:58.285Z,21.42
2022-08-10T23:53:28.951Z,21.58
2022-08-10T23:56:01.771Z,21.53
2022-08-10T23:58:35.584Z,21.50
